createdAt,value
2022-08-28T00:02:25.663Z,17.50
2022-08-28T00:05:15.104Z,17.50
2022-08-28T00:08:02.736Z,17.50
2022-08-28T00:10:54.371Z,17.20
2022-08-28T00:13:44.224Z,17.50
2022-08-28T00:16:32.043Z,17.50
2022-08-28T00:19:20.894Z,17.40
2022-08-28T00:22:08.838Z,17.40
2022-08-28T00:24:56.447Z,17.60
2022-08-28T00:27:57.490Z,17.40
2022-08-28T00:30:48.715Z,17.30
2022-08-28T00:33:37.907Z,17.30
2022-08-28T00:36:25.297Z,17.30
2022-08-28T00:39:13.183Z,17.30
2022-08-28T00:42:04.616Z,17.30
2022-08-28T00:44:52.823Z,17.20
2022-08-28T00:47:42.434Z,17.30
2022-08-28T00:50:52.582Z,17.20
2022-08-28T00:53:39.767Z,17.20
2022-08-28T00:56:27.575Z,17.30
2022-08-28T00:59:17.736Z,17.30
2022-08-28T01:02:07.217Z,17.10
2022-08-28T01:04:57.096Z,17.20
2022-08-28T01:07:45.390Z,17.10
2022-08-28T01:10:35.100Z,17.10
2022-08-28T01:13:23.685Z,17.10
2022-08-28T01:16:11.610Z,17.10
2022-08-28T01:19:00.579Z,17.10
2022-08-28T01:21:54.583Z,17.10
2022-08-28T01:24:45.104Z,17.00
2022-08-28T01:27:32.625Z,17.20
2022-08-28T01:30:21.700Z,17.10
2022-08-28T01:33:09.297Z,17.00
2022-08-28T01:35:59.857Z,17.10
2022-08-28T01:38:49.608Z,17.00
2022-08-28T01:41:41.431Z,17.00
2022-08-28T01:44:29.621Z,17.00
2022-08-28T01:47:17.927Z,17.00
2022-08-28T01:50:06.578Z,16.70
2022-08-28T01:52:54.942Z,17.00
2022-08-28T01:55:42.620Z,17.00
2022-08-28T01:58:37.941Z,17.00
2022-08-28T02:01:26.408Z,17.00
2022-08-28T02:04:14.750Z,17.00
2022-08-28T02:07:02.793Z,16.90
2022-08-28T02:09:54.911Z,16.90
2022-08-28T02:12:44.033Z,16.90
2022-08-28T02:15:33.599Z,17.00
2022-08-28T02:18:22.219Z,16.90
2022-08-28T02:21:11.178Z,17.10
2022-08-28T02:24:01.258Z,16.90
2022-08-28T02:26:49.504Z,16.90
2022-08-28T02:29:37.076Z,16.80
2022-08-28T02:32:26.709Z,16.80
2022-08-28T02:35:14.903Z,16.70
2022-08-28T02:38:15.432Z,16.80
2022-08-28T02:41:04.345Z,16.80
2022-08-28T02:43:51.844Z,16.70
2022-08-28T02:46:39.938Z,16.70
2022-08-28T02:49:31.380Z,16.70
2022-08-28T02:52:25.003Z,16.70
2022-08-28T02:55:14.148Z,16.70
2022-08-28T02:58:02.343Z,16.60
2022-08-28T03:00:49.906Z,16.60
2022-08-28T03:03:38.170Z,16.60
2022-08-28T03:06:30.060Z,16.60
2022-08-28T03:09:17.424Z,16.50
2022-08-28T03:12:05.507Z,16.50
2022-08-28T03:14:54.286Z,16.50
2022-08-28T03:17:41.928Z,16.50
2022-08-28T03:20:29.669Z,16.50
2022-08-28T03:23:28.070Z,16.50
2022-08-28T03:26:17.284Z,16.40
2022-08-28T03:29:05.180Z,16.50
2022-08-28T03:31:53.070Z,16.40
2022-08-28T03:34:41.182Z,16.30
2022-08-28T03:37:32.453Z,16.30
2022-08-28T03:40:22.535Z,16.30
2022-08-28T03:43:11.281Z,16.30
2022-08-28T03:46:00.442Z,16.30
2022-08-28T03:48:48.804Z,16.20
2022-08-28T03:51:42.388Z,16.40
2022-08-28T03:54:33.159Z,16.20
2022-08-28T03:57:23.564Z,16.20
2022-08-28T04:00:12.312Z,16.20
2022-08-28T04:02:59.941Z,16.10
2022-08-28T04:05:47.312Z,16.00
2022-08-28T04:08:35.977Z,16.00
2022-08-28T04:11:24.160Z,16.00
2022-08-28T04:14:13.371Z,15.90
2022-08-28T04:17:01.603Z,15.90
2022-08-28T04:19:49.403Z,16.00
2022-08-28T04:22:38.450Z,15.90
2022-08-28T04:25:29.751Z,15.70
2022-08-28T04:28:17.799Z,15.80
2022-08-28T04:31:09.074Z,16.40
2022-08-28T04:33:57.112Z,15.70
2022-08-28T04:36:45.496Z,15.80
2022-08-28T04:39:33.135Z,15.70
2022-08-28T04:42:20.672Z,15.70
2022-08-28T04:45:08.912Z,15.70
2022-08-28T04:47:58.592Z,15.60
2022-08-28T04:50:51.217Z,15.60
2022-08-28T04:53:39.534Z,15.60
2022-08-28T04:56:27.097Z,15.60
2022-08-28T04:59:16.625Z,15.60
2022-08-28T05:02:04.417Z,15.70
2022-08-28T05:04:53.734Z,15.60
2022-08-28T05:07:41.611Z,15.80
2022-08-28T05:10:32.675Z,15.60
2022-08-28T05:13:21.046Z,15.60
2022-08-28T05:16:08.497Z,15.60
2022-08-28T05:19:00.542Z,15.60
2022-08-28T05:21:50.163Z,15.50
2022-08-28T05:24:38.736Z,15.50
2022-08-28T05:27:26.808Z,15.40
2022-08-28T05:30:14.928Z,15.40
2022-08-28T05:33:02.391Z,15.40
2022-08-28T05:35:50.279Z,15.60
2022-08-28T05:38:39.960Z,15.40
2022-08-28T05:41:30.426Z,15.40
2022-08-28T05:44:19.790Z,15.40
2022-08-28T05:47:07.533Z,15.40
2022-08-28T05:49:56.129Z,15.40
2022-08-28T05:52:44.181Z,15.40
2022-08-28T05:55:33.624Z,15.40
2022-08-28T05:58:30.249Z,15.40
2022-08-28T06:01:21.169Z,15.40
2022-08-28T06:04:10.751Z,15.50
2022-08-28T06:06:58.527Z,15.50
2022-08-28T06:09:46.323Z,15.40
2022-08-28T06:12:37.599Z,15.40
2022-08-28T06:15:25.491Z,15.30
2022-08-28T06:18:14.105Z,15.30
2022-08-28T06:21:02.975Z,15.20
2022-08-28T06:23:50.916Z,15.30
2022-08-28T06:26:38.836Z,15.30
2022-08-28T06:29:28.521Z,15.30
2022-08-28T06:32:15.957Z,15.40
2022-08-28T06:35:03.286Z,15.40
2022-08-28T06:37:51.066Z,15.50
2022-08-28T06:40:44.160Z,15.40
2022-08-28T06:43:31.875Z,15.40
2022-08-28T06:46:25.731Z,14.80
2022-08-28T06:49:17.151Z,15.40
2022-08-28T06:52:05.236Z,15.40
2022-08-28T06:54:55.563Z,15.70
2022-08-28T06:57:43.646Z,15.30
2022-08-28T07:00:31.088Z,15.30
2022-08-28T07:03:23.238Z,15.40
2022-08-28T07:06:12.696Z,15.30
2022-08-28T07:09:00.222Z,15.50
2022-08-28T07:11:51.178Z,15.60
2022-08-28T07:14:39.476Z,15.50
2022-08-28T07:17:27.049Z,15.60
2022-08-28T07:20:16.824Z,15.50
2022-08-28T07:23:05.002Z,15.60
2022-08-28T07:25:53.238Z,15.70
2022-08-28T07:28:41.366Z,15.80
2022-08-28T07:31:36.639Z,15.80
2022-08-28T07:34:27.501Z,15.70
2022-08-28T07:37:20.062Z,15.60
2022-08-28T07:40:11.334Z,15.60
2022-08-28T07:43:12.820Z,15.70
2022-08-28T07:46:00.833Z,15.70
2022-08-28T07:48:48.393Z,15.70
2022-08-28T07:51:35.652Z,15.70
2022-08-28T07:54:24.855Z,15.80
2022-08-28T07:57:12.780Z,15.80
2022-08-28T08:00:00.610Z,15.90
2022-08-28T08:02:48.346Z,16.00
2022-08-28T08:05:35.918Z,16.00
2022-08-28T08:08:24.424Z,16.10
2022-08-28T08:11:18.005Z,16.20
2022-08-28T08:14:07.500Z,16.30
2022-08-28T08:16:54.729Z,16.40
2022-08-28T08:19:43.055Z,16.50
2022-08-28T08:22:31.018Z,16.60
2022-08-28T08:25:18.948Z,16.70
2022-08-28T08:28:10.187Z,16.80
2022-08-28T08:31:05.090Z,16.90
2022-08-28T08:33:59.933Z,16.90
2022-08-28T08:36:50.630Z,17.10
2022-08-28T08:39:38.590Z,16.40
2022-08-28T08:42:27.460Z,17.20
2022-08-28T08:45:21.462Z,17.30
2022-08-28T08:48:14.023Z,17.50
2022-08-28T08:51:04.461Z,17.60
2022-08-28T08:54:06.174Z,17.80
2022-08-28T08:56:56.022Z,17.90
2022-08-28T08:59:44.245Z,18.00
2022-08-28T09:02:38.224Z,18.00
2022-08-28T09:05:28.685Z,18.10
2022-08-28T09:08:20.266Z,18.10
2022-08-28T09:11:16.656Z,18.20
2022-08-28T09:14:06.729Z,18.20
2022-08-28T09:16:54.656Z,18.40
2022-08-28T09:19:43.711Z,18.40
2022-08-28T09:22:31.085Z,18.40
2022-08-28T09:25:33.577Z,18.40
2022-08-28T09:28:23.179Z,18.40
2022-08-28T09:31:14.340Z,18.60
2022-08-28T09:34:18.929Z,18.70
2022-08-28T09:37:09.723Z,19.00
2022-08-28T09:40:16.186Z,19.30
2022-08-28T09:43:23.671Z,19.10
2022-08-28T09:46:19.481Z,19.30
2022-08-28T09:49:13.576Z,19.30
2022-08-28T09:52:20.668Z,19.50
2022-08-28T09:55:12.912Z,19.60
2022-08-28T09:58:00.999Z,19.60
2022-08-28T10:00:52.387Z,20.00
2022-08-28T10:03:45.069Z,20.00
2022-08-28T10:06:35.217Z,19.90
2022-08-28T10:09:26.092Z,19.80
2022-08-28T10:12:20.220Z,19.80
2022-08-28T10:15:11.477Z,19.80
2022-08-28T10:18:09.613Z,19.80
2022-08-28T10:21:03.091Z,19.80
2022-08-28T10:24:03.648Z,19.90
2022-08-28T10:26:53.352Z,19.90
2022-08-28T10:29:48.729Z,20.00
2022-08-28T10:32:45.760Z,20.20
2022-08-28T10:35:39.899Z,19.90
2022-08-28T10:38:33.282Z,20.10
2022-08-28T10:41:22.311Z,20.10
2022-08-28T10:44:12.668Z,20.20
2022-08-28T10:47:04.033Z,20.40
2022-08-28T10:49:53.620Z,20.50
2022-08-28T10:52:45.228Z,20.70
2022-08-28T10:55:37.195Z,20.70
2022-08-28T10:58:27.179Z,20.80
2022-08-28T11:01:27.261Z,20.70
2022-08-28T11:04:25.113Z,20.80
2022-08-28T11:07:15.717Z,20.70
2022-08-28T11:10:20.949Z,20.90
2022-08-28T11:13:09.667Z,20.70
2022-08-28T11:15:57.770Z,20.90
2022-08-28T11:18:56.943Z,21.00
2022-08-28T11:21:49.163Z,20.90
2022-08-28T11:24:45.132Z,20.90
2022-08-28T11:27:33.912Z,20.80
2022-08-28T11:30:39.387Z,20.90
2022-08-28T11:33:38.205Z,21.10
2022-08-28T11:36:46.269Z,21.40
2022-08-28T11:39:37.842Z,21.50
2022-08-28T11:42:40.276Z,21.50
2022-08-28T11:45:52.624Z,21.60
2022-08-28T11:48:48.747Z,21.50
2022-08-28T11:51:55.576Z,21.60
2022-08-28T11:54:49.871Z,21.60
2022-08-28T11:57:47.211Z,21.70
2022-08-28T12:00:53.740Z,21.30
2022-08-28T12:03:48.554Z,21.40
2022-08-28T12:07:16.663Z,21.40
2022-08-28T12:10:27.594Z,21.60
2022-08-28T12:13:37.942Z,21.80
2022-08-28T12:16:26.309Z,22.00
2022-08-28T12:19:27.829Z,22.30
2022-08-28T12:22:17.929Z,22.10
2022-08-28T12:25:10.345Z,21.70
2022-08-28T12:28:01.195Z,20.90
2022-08-28T12:30:54.589Z,22.20
2022-08-28T12:33:50.533Z,22.20
2022-08-28T12:36:38.752Z,22.30
2022-08-28T12:39:28.849Z,21.70
2022-08-28T12:42:18.704Z,22.50
2022-08-28T12:45:08.089Z,22.40
2022-08-28T12:47:57.254Z,22.50
2022-08-28T12:50:44.573Z,22.80
2022-08-28T12:53:44.468Z,22.90
2022-08-28T12:56:35.087Z,22.90
2022-08-28T12:59:35.661Z,22.00
2022-08-28T13:02:25.983Z,22.70
2022-08-28T13:05:21.463Z,22.60
2022-08-28T13:08:11.507Z,22.60
2022-08-28T13:10:59.330Z,22.60
2022-08-28T13:13:47.905Z,22.60
2022-08-28T13:16:38.373Z,22.80
2022-08-28T13:19:27.843Z,22.90
2022-08-28T13:22:29.731Z,22.70
2022-08-28T13:25:25.184Z,22.80
2022-08-28T13:28:14.232Z,22.60
2022-08-28T13:31:02.240Z,22.70
2022-08-28T13:34:04.216Z,22.90
2022-08-28T13:36:53.541Z,22.80
2022-08-28T13:39:41.571Z,22.40
2022-08-28T13:42:29.310Z,22.80
2022-08-28T13:45:16.898Z,23.00
2022-08-28T13:48:05.002Z,22.90
2022-08-28T13:50:58.013Z,23.40
2022-08-28T13:53:45.824Z,23.60
2022-08-28T13:56:33.659Z,23.60
2022-08-28T13:59:21.831Z,23.40
2022-08-28T14:02:29.145Z,22.90
2022-08-28T14:05:16.722Z,22.90
2022-08-28T14:08:05.843Z,23.30
2022-08-28T14:10:53.623Z,23.40
2022-08-28T14:13:47.218Z,23.20
2022-08-28T14:16:45.206Z,23.10
2022-08-28T14:19:32.500Z,23.00
2022-08-28T14:22:20.440Z,23.30
2022-08-28T14:25:10.869Z,23.60
2022-08-28T14:27:58.570Z,23.60
2022-08-28T14:30:46.912Z,23.80
2022-08-28T14:33:37.027Z,23.80
2022-08-28T14:36:25.392Z,23.40
2022-08-28T14:39:13.896Z,23.00
2022-08-28T14:42:03.048Z,23.10
2022-08-28T14:44:51.617Z,23.50
2022-08-28T14:47:39.689Z,23.60
2022-08-28T14:50:28.030Z,23.70
2022-08-28T14:53:16.129Z,23.40
2022-08-28T14:56:03.643Z,23.20
2022-08-28T14:58:52.401Z,22.80
2022-08-28T15:01:41.326Z,22.60
2022-08-28T15:04:34.570Z,22.90
2022-08-28T15:07:33.453Z,23.10
2022-08-28T15:10:21.311Z,23.50
2022-08-28T15:13:10.354Z,23.30
2022-08-28T15:16:03.935Z,23.70
2022-08-28T15:18:53.973Z,23.50
2022-08-28T15:21:43.803Z,23.00
2022-08-28T15:24:34.348Z,22.60
2022-08-28T15:27:21.794Z,22.70
2022-08-28T15:30:10.246Z,22.90
2022-08-28T15:32:59.601Z,23.10
2022-08-28T15:35:47.434Z,23.30
2022-08-28T15:38:49.299Z,23.40
2022-08-28T15:41:38.141Z,23.40
2022-08-28T15:44:25.568Z,23.30
2022-08-28T15:47:14.866Z,23.40
2022-08-28T15:50:06.257Z,23.30
2022-08-28T15:52:53.968Z,24.20
2022-08-28T15:55:41.646Z,22.80
2022-08-28T15:58:29.612Z,23.00
2022-08-28T16:01:17.126Z,23.10
2022-08-28T16:04:05.197Z,23.20
2022-08-28T16:07:00.571Z,23.30
2022-08-28T16:09:48.770Z,23.10
2022-08-28T16:12:38.106Z,23.10
2022-08-28T16:15:26.545Z,23.10
2022-08-28T16:18:17.029Z,23.00
2022-08-28T16:21:05.285Z,23.00
2022-08-28T16:23:54.275Z,22.80
2022-08-28T16:26:42.445Z,22.80
2022-08-28T16:29:30.405Z,22.70
2022-08-28T16:32:18.319Z,22.80
2022-08-28T16:35:06.258Z,22.90
2022-08-28T16:37:54.876Z,22.90
2022-08-28T16:40:44.735Z,22.80
2022-08-28T16:43:34.358Z,22.90
2022-08-28T16:46:23.773Z,22.80
2022-08-28T16:49:11.816Z,22.80
2022-08-28T16:51:59.616Z,22.80
2022-08-28T16:54:48.718Z,22.60
2022-08-28T16:57:40.218Z,22.60
2022-08-28T17:00:30.341Z,22.60
2022-08-28T17:03:19.547Z,23.30
2022-08-28T17:06:13.452Z,22.70
2022-08-28T17:09:01.894Z,22.40
2022-08-28T17:11:52.163Z,22.50
2022-08-28T17:14:41.950Z,22.30
2022-08-28T17:17:29.935Z,22.20
2022-08-28T17:20:35.937Z,22.10
2022-08-28T17:23:23.987Z,22.20
2022-08-28T17:26:15.507Z,22.20
2022-08-28T17:29:03.221Z,22.20
2022-08-28T17:31:52.276Z,22.20
2022-08-28T17:34:42.223Z,22.00
2022-08-28T17:37:29.967Z,21.90
2022-08-28T17:40:18.489Z,21.80
2022-08-28T17:43:06.705Z,21.70
2022-08-28T17:45:54.368Z,21.70
2022-08-28T17:49:05.248Z,21.60
2022-08-28T17:51:54.792Z,21.50
2022-08-28T17:54:42.276Z,21.40
2022-08-28T17:57:30.619Z,21.20
2022-08-28T18:00:18.894Z,21.20
2022-08-28T18:03:07.706Z,21.10
2022-08-28T18:05:57.307Z,21.00
2022-08-28T18:08:47.852Z,20.90
2022-08-28T18:11:35.998Z,20.80
2022-08-28T18:14:23.670Z,20.70
2022-08-28T18:17:13.549Z,20.80
2022-08-28T18:20:01.391Z,20.60
2022-08-28T18:22:53.301Z,20.50
2022-08-28T18:25:50.604Z,20.50
2022-08-28T18:28:39.817Z,20.80
2022-08-28T18:31:27.148Z,20.40
2022-08-28T18:34:17.559Z,20.20
2022-08-28T18:37:05.225Z,20.20
2022-08-28T18:39:54.498Z,20.10
2022-08-28T18:42:44.635Z,20.00
2022-08-28T18:45:32.819Z,20.00
2022-08-28T18:48:21.523Z,19.80
2022-08-28T18:51:08.895Z,19.60
2022-08-28T18:53:57.733Z,19.60
2022-08-28T18:56:49.105Z,19.40
2022-08-28T18:59:38.025Z,19.30
2022-08-28T19:02:25.842Z,19.30
2022-08-28T19:05:13.233Z,19.20
2022-08-28T19:08:00.771Z,19.10
2022-08-28T19:10:48.588Z,19.10
2022-08-28T19:13:39.412Z,19.10
2022-08-28T19:16:26.802Z,19.00
2022-08-28T19:19:14.359Z,19.00
2022-08-28T19:22:02.800Z,18.90
2022-08-28T19:24:50.645Z,19.20
2022-08-28T19:27:38.346Z,18.70
2022-08-28T19:30:28.395Z,18.80
2022-08-28T19:33:16.803Z,18.50
2022-08-28T19:36:05.375Z,18.40
2022-08-28T19:38:52.604Z,18.40
2022-08-28T19:41:40.343Z,18.30
2022-08-28T19:44:28.062Z,18.30
2022-08-28T19:47:16.699Z,18.30
2022-08-28T19:50:04.599Z,18.20
2022-08-28T19:52:51.837Z,18.20
2022-08-28T19:55:39.200Z,18.10
2022-08-28T19:58:27.205Z,18.10
2022-08-28T20:01:15.557Z,18.10
2022-08-28T20:04:04.908Z,17.90
2022-08-28T20:06:52.565Z,17.80
2022-08-28T20:09:40.887Z,17.80
2022-08-28T20:12:28.378Z,17.70
2022-08-28T20:15:16.081Z,17.60
2022-08-28T20:18:03.839Z,17.60
2022-08-28T20:20:53.165Z,17.60
2022-08-28T20:23:40.594Z,17.50
2022-08-28T20:26:28.747Z,17.50
2022-08-28T20:29:16.821Z,17.40
2022-08-28T20:32:05.386Z,17.40
2022-08-28T20:34:52.699Z,17.30
2022-08-28T20:37:45.449Z,17.30
2022-08-28T20:40:33.450Z,17.30
2022-08-28T20:43:20.983Z,17.20
2022-08-28T20:46:09.836Z,17.20
2022-08-28T20:49:03.860Z,17.30
2022-08-28T20:51:57.017Z,17.10
2022-08-28T20:54:49.063Z,17.10
2022-08-28T20:57:37.750Z,17.10
2022-08-28T21:00:25.682Z,17.10
2022-08-28T21:03:17.559Z,17.00
2022-08-28T21:06:07.673Z,17.00
2022-08-28T21:08:56.486Z,17.00
2022-08-28T21:11:45.933Z,17.30
2022-08-28T21:14:33.512Z,17.00
2022-08-28T21:17:28.906Z,17.00
2022-08-28T21:20:20.245Z,16.90
2022-08-28T21:23:08.080Z,16.80
2022-08-28T21:25:55.649Z,17.00
2022-08-28T21:28:45.078Z,16.90
2022-08-28T21:31:33.402Z,16.70
2022-08-28T21:34:22.006Z,16.60
2022-08-28T21:37:10.352Z,16.70
2022-08-28T21:39:57.946Z,16.60
2022-08-28T21:42:45.646Z,16.60
2022-08-28T21:45:35.776Z,16.50
2022-08-28T21:48:24.307Z,16.50
2022-08-28T21:51:13.454Z,16.50
2022-08-28T21:54:00.787Z,15.20
2022-08-28T21:56:50.554Z,16.50
2022-08-28T21:59:46.834Z,16.40
2022-08-28T22:02:36.132Z,16.40
2022-08-28T22:05:24.050Z,16.40
2022-08-28T22:08:12.906Z,16.40
2022-08-28T22:11:00.835Z,16.30
2022-08-28T22:13:48.327Z,16.30
2022-08-28T22:16:35.691Z,16.20
2022-08-28T22:19:25.308Z,16.20
2022-08-28T22:22:29.668Z,16.20
2022-08-28T22:25:17.629Z,16.30
2022-08-28T22:28:05.894Z,16.10
2022-08-28T22:30:53.864Z,16.10
2022-08-28T22:33:43.049Z,16.20
2022-08-28T22:36:34.600Z,16.10
2022-08-28T22:39:22.364Z,16.00
2022-08-28T22:42:11.122Z,16.00
2022-08-28T22:44:59.692Z,16.00
2022-08-28T22:47:49.218Z,16.00
2022-08-28T22:50:37.353Z,16.00
2022-08-28T22:53:26.461Z,15.90
2022-08-28T22:56:15.142Z,15.90
2022-08-28T22:59:03.159Z,15.80
2022-08-28T23:01:51.144Z,15.70
2022-08-28T23:04:39.509Z,15.80
2022-08-28T23:07:27.403Z,15.70
2022-08-28T23:10:17.430Z,15.60
2022-08-28T23:13:06.359Z,15.50
2022-08-28T23:15:54.658Z,15.50
2022-08-28T23:19:06.758Z,15.50
2022-08-28T23:21:50.147Z,15.40
2022-08-28T23:24:38.287Z,15.10
2022-08-28T23:27:36.493Z,15.30
2022-08-28T23:30:30.591Z,15.30
2022-08-28T23:33:23.882Z,15.20
2022-08-28T23:36:12.465Z,15.10
2022-08-28T23:38:59.862Z,15.10
2022-08-28T23:41:47.980Z,15.00
2022-08-28T23:44:36.834Z,15.00
2022-08-28T23:47:24.987Z,15.00
2022-08-28T23:50:14.179Z,15.00
2022-08-28T23:53:03.105Z,14.90
2022-08-28T23:55:52.103Z,14.90
2022-08-28T23:58:39.624Z,14.80
